Time;durP1;ratioP1;P1;durP2;ratioP2;P2;SDS_P1;SDS_P2;PMS_P1;PMS_P2;Temp;Humidity;BMP_temperature;BMP_pressure;BME280_temperature;BME280_humidity;BME280_pressure;Samples;Min_cycle;Max_cycle;Signal;HPM_P1;HPM_P2
2022/08/25 00:00:04;;;;;;;;;8.00;7.67;;;;;;;;5042587;28;61908;-80
2022/08/25 00:02:30;;;;;;;;;13.67;11.00;;;;;;;;5042101;28;61793;-80
2022/08/25 00:04:55;;;;;;;;;9.67;9.67;;;;;;;;5042067;28;61710;-80
2022/08/25 00:07:20;;;;;;;;;12.67;11.00;;;;;;;;5042165;28;61821;-80
2022/08/25 00:09:46;;;;;;;;;11.00;8.33;;;;;;;;5042597;28;61722;-80
2022/08/25 00:12:11;;;;;;;;;8.67;8.67;;;;;;;;5040192;28;64507;-80
2022/08/25 00:14:37;;;;;;;;;9.67;7.33;;;;;;;;5042231;28;61866;-80
2022/08/25 00:17:03;;;;;;;;;10.00;8.67;;;;;;;;5040476;28;61735;-80
2022/08/25 00:19:30;;;;;;;;;7.00;6.33;;;;;;;;5042552;28;61781;-80
2022/08/25 00:21:56;;;;;;;;;11.00;7.67;;;;;;;;5039800;28;64144;-80
2022/08/25 00:24:22;;;;;;;;;10.33;9.00;;;;;;;;5048419;28;61852;-80
2022/08/25 00:26:49;;;;;;;;;10.67;10.33;;;;;;;;5040658;28;61964;-80
2022/08/25 00:29:14;;;;;;;;;16.33;10.67;;;;;;;;5040842;28;61837;-80
2022/08/25 00:31:40;;;;;;;;;11.33;9.00;;;;;;;;5041227;28;61825;-80
2022/08/25 00:34:08;;;;;;;;;10.00;9.67;;;;;;;;5040542;28;61865;-80
2022/08/25 00:36:33;;;;;;;;;9.00;9.00;;;;;;;;5040473;28;61917;-80
2022/08/25 00:38:58;;;;;;;;;10.67;8.67;;;;;;;;5041318;28;62042;-80
2022/08/25 00:41:25;;;;;;;;;10.33;6.33;;;;;;;;5041497;28;62043;-80
2022/08/25 00:43:52;;;;;;;;;12.00;7.67;;;;;;;;5040138;28;61810;-80
2022/08/25 00:46:20;;;;;;;;;13.33;10.00;;;;;;;;5042343;28;61816;-80
2022/08/25 00:48:49;;;;;;;;;7.33;5.33;;;;;;;;5040802;28;62152;-81
2022/08/25 00:51:18;;;;;;;;;9.67;8.33;;;;;;;;5041620;28;62174;-81
2022/08/25 00:53:43;;;;;;;;;6.67;6.33;;;;;;;;5041783;28;61873;-80
2022/08/25 00:56:09;;;;;;;;;8.67;8.33;;;;;;;;5040528;28;61886;-80
2022/08/25 00:58:36;;;;;;;;;11.00;9.00;;;;;;;;5042273;28;61906;-80
2022/08/25 01:01:01;;;;;;;;;11.00;7.33;;;;;;;;5041401;28;62720;-80
2022/08/25 01:03:27;;;;;;;;;11.67;7.67;;;;;;;;5041991;28;62087;-81
2022/08/25 01:05:53;;;;;;;;;10.00;9.00;;;;;;;;5041852;28;61839;-80
2022/08/25 01:08:21;;;;;;;;;9.00;9.00;;;;;;;;5040658;28;62159;-81
2022/08/25 01:10:48;;;;;;;;;8.67;7.00;;;;;;;;5040603;28;64120;-80
2022/08/25 01:13:19;;;;;;;;;9.67;6.00;;;;;;;;5041811;28;61833;-80
2022/08/25 01:15:45;;;;;;;;;14.33;11.33;;;;;;;;5040969;28;62219;-80
2022/08/25 01:18:10;;;;;;;;;10.00;7.67;;;;;;;;5042320;28;61741;-80
2022/08/25 01:20:36;;;;;;;;;8.00;6.67;;;;;;;;5041458;28;62037;-80
2022/08/25 01:23:01;;;;;;;;;10.00;9.00;;;;;;;;5048628;28;62029;-80
2022/08/25 01:25:46;;;;;;;;;6.00;6.00;;;;;;;;5060861;28;61809;-80
2022/08/25 01:28:11;;;;;;;;;7.67;7.67;;;;;;;;5062046;28;62603;-80
2022/08/25 01:30:37;;;;;;;;;15.00;12.33;;;;;;;;5059916;28;65271;-80
2022/08/25 01:33:06;;;;;;;;;9.00;8.00;;;;;;;;5060415;28;61814;-80
2022/08/25 01:35:32;;;;;;;;;10.67;8.33;;;;;;;;5062801;28;62261;-80
2022/08/25 01:37:58;;;;;;;;;9.33;8.67;;;;;;;;5065341;28;62038;-80
2022/08/25 01:40:24;;;;;;;;;10.33;8.67;;;;;;;;5063665;28;64761;-80
2022/08/25 01:42:59;;;;;;;;;13.67;8.00;;;;;;;;5065613;28;61694;-80
2022/08/25 01:45:24;;;;;;;;;13.00;10.67;;;;;;;;5064451;28;61795;-81
2022/08/25 01:47:50;;;;;;;;;10.00;6.00;;;;;;;;5064339;28;62166;-80
2022/08/25 01:50:15;;;;;;;;;7.00;7.00;;;;;;;;5062605;28;63524;-80
2022/08/25 01:52:50;;;;;;;;;8.33;7.67;;;;;;;;5063434;28;62135;-80
2022/08/25 01:55:16;;;;;;;;;8.00;8.00;;;;;;;;5063262;28;61897;-80
2022/08/25 01:57:41;;;;;;;;;10.67;8.67;;;;;;;;5065362;28;61952;-80
2022/08/25 02:00:08;;;;;;;;;6.67;6.67;;;;;;;;5064213;28;62961;-80
2022/08/25 02:02:34;;;;;;;;;7.67;7.67;;;;;;;;5063668;28;61867;-80
2022/08/25 02:04:59;;;;;;;;;7.67;6.00;;;;;;;;5063535;28;61823;-80
2022/08/25 02:07:24;;;;;;;;;8.00;8.00;;;;;;;;5064545;28;62043;-80
2022/08/25 02:09:50;;;;;;;;;11.00;10.00;;;;;;;;5062643;28;63846;-80
2022/08/25 02:12:15;;;;;;;;;7.67;7.67;;;;;;;;5064452;28;62073;-80
2022/08/25 02:14:40;;;;;;;;;10.33;8.67;;;;;;;;5063421;28;62551;-80
2022/08/25 02:17:06;;;;;;;;;10.00;9.67;;;;;;;;5064801;28;62163;-80
2022/08/25 02:19:31;;;;;;;;;12.00;7.33;;;;;;;;5062639;28;64660;-80
2022/08/25 02:21:57;;;;;;;;;10.00;8.00;;;;;;;;5063202;28;61834;-80
2022/08/25 02:24:23;;;;;;;;;9.50;8.00;;;;;;;;5061904;28;62174;-80
2022/08/25 02:26:49;;;;;;;;;7.67;7.67;;;;;;;;5063428;28;61725;-80
2022/08/25 02:29:15;;;;;;;;;10.67;8.33;;;;;;;;5064069;28;62360;-80
2022/08/25 02:31:41;;;;;;;;;9.33;7.00;;;;;;;;5064345;28;61835;-80
2022/08/25 02:34:07;;;;;;;;;9.67;9.00;;;;;;;;5064492;28;61824;-80
2022/08/25 02:36:32;;;;;;;;;12.67;9.00;;;;;;;;5064587;28;61777;-80
2022/08/25 02:38:58;;;;;;;;;8.67;7.33;;;;;;;;5061989;28;63624;-81
2022/08/25 02:41:24;;;;;;;;;8.00;7.00;;;;;;;;5064052;28;61749;-80
2022/08/25 02:43:50;;;;;;;;;8.33;7.67;;;;;;;;5064178;28;61920;-80
2022/08/25 02:46:16;;;;;;;;;9.00;8.00;;;;;;;;5062734;28;62143;-80
2022/08/25 02:48:41;;;;;;;;;11.33;9.33;;;;;;;;5062264;28;61731;-80
2022/08/25 02:51:08;;;;;;;;;9.67;8.33;;;;;;;;5062731;28;62226;-81
2022/08/25 02:53:34;;;;;;;;;6.00;6.00;;;;;;;;5062691;28;61863;-80
2022/08/25 02:56:00;;;;;;;;;8.75;7.25;;;;;;;;5062863;28;62153;-80
2022/08/25 02:58:25;;;;;;;;;10.25;8.75;;;;;;;;5063232;28;61833;-81
2022/08/25 03:00:51;;;;;;;;;8.33;8.00;;;;;;;;5062676;28;61851;-81
2022/08/25 03:03:17;;;;;;;;;7.00;7.00;;;;;;;;5063796;28;61906;-81
2022/08/25 03:05:42;;;;;;;;;10.67;7.33;;;;;;;;5063918;28;61830;-81
2022/08/25 03:08:08;;;;;;;;;8.00;8.00;;;;;;;;5061136;28;63665;-80
2022/08/25 03:10:33;;;;;;;;;12.50;7.00;;;;;;;;5063690;28;61965;-81
2022/08/25 03:12:59;;;;;;;;;8.67;7.00;;;;;;;;5063727;28;62007;-81
2022/08/25 03:15:26;;;;;;;;;6.75;6.75;;;;;;;;5063741;28;62053;-80
2022/08/25 03:17:52;;;;;;;;;8.00;7.33;;;;;;;;5063623;28;61986;-80
2022/08/25 03:20:18;;;;;;;;;8.00;8.00;;;;;;;;5062186;28;62230;-80
2022/08/25 03:22:43;;;;;;;;;12.00;8.00;;;;;;;;5061324;28;61902;-80
2022/08/25 03:27:53;;;;;;;;;8.67;6.67;;;;;;;;5063387;28;62712;-80
2022/08/25 03:30:18;;;;;;;;;8.25;8.25;;;;;;;;5062699;28;61762;-80
2022/08/25 03:32:44;;;;;;;;;10.00;8.00;;;;;;;;5063979;28;61746;-81
2022/08/25 03:35:09;;;;;;;;;12.00;8.33;;;;;;;;5064429;28;61798;-80
2022/08/25 03:37:35;;;;;;;;;8.25;8.25;;;;;;;;5060682;28;63619;-80
2022/08/25 03:40:01;;;;;;;;;7.67;7.00;;;;;;;;5062047;28;61804;-80
2022/08/25 03:42:27;;;;;;;;;7.33;7.33;;;;;;;;5062513;28;61758;-81
2022/08/25 03:44:52;;;;;;;;;6.75;6.75;;;;;;;;5063526;28;61975;-81
2022/08/25 03:47:17;;;;;;;;;5.33;5.00;;;;;;;;5061251;28;63796;-81
2022/08/25 03:49:43;;;;;;;;;10.33;7.33;;;;;;;;5062830;28;61948;-80
2022/08/25 03:52:08;;;;;;;;;9.67;9.00;;;;;;;;5061736;28;62016;-80
2022/08/25 03:54:33;;;;;;;;;6.00;6.00;;;;;;;;5061169;28;62172;-80
2022/08/25 03:56:58;;;;;;;;;5.67;5.67;;;;;;;;5062663;28;62066;-80
2022/08/25 03:59:25;;;;;;;;;9.25;9.25;;;;;;;;5063119;28;62125;-80
2022/08/25 04:01:51;;;;;;;;;10.67;6.00;;;;;;;;5063132;28;61770;-80
2022/08/25 04:04:16;;;;;;;;;11.33;7.33;;;;;;;;5063138;28;61826;-81
2022/08/25 04:06:42;;;;;;;;;7.00;7.00;;;;;;;;5061722;28;63148;-81
2022/08/25 04:09:08;;;;;;;;;7.33;5.33;;;;;;;;5062667;28;61931;-80
2022/08/25 04:11:34;;;;;;;;;7.00;7.00;;;;;;;;5062717;28;61915;-80
2022/08/25 04:14:01;;;;;;;;;6.25;6.25;;;;;;;;5061504;28;61785;-80
2022/08/25 04:16:32;;;;;;;;;6.33;6.33;;;;;;;;5061849;28;61956;-80
2022/08/25 04:19:00;;;;;;;;;10.75;7.75;;;;;;;;5062696;28;61897;-80
2022/08/25 04:21:27;;;;;;;;;8.00;6.75;;;;;;;;5062641;28;61776;-81
2022/08/25 04:23:53;;;;;;;;;8.75;8.00;;;;;;;;5062109;28;61870;-80
2022/08/25 04:26:27;;;;;;;;;7.50;6.00;;;;;;;;5060615;28;64634;-80
2022/08/25 04:28:52;;;;;;;;;6.00;6.00;;;;;;;;5061378;28;61845;-80
2022/08/25 04:31:18;;;;;;;;;8.00;8.00;;;;;;;;5061077;28;61864;-80
2022/08/25 04:33:46;;;;;;;;;9.50;8.00;;;;;;;;5062801;28;62015;-80
2022/08/25 04:36:12;;;;;;;;;8.33;7.33;;;;;;;;5061669;28;62998;-80
2022/08/25 04:38:38;;;;;;;;;7.00;7.00;;;;;;;;5062107;28;61867;-80
2022/08/25 04:41:04;;;;;;;;;6.00;6.00;;;;;;;;5063211;28;61921;-80
2022/08/25 04:43:30;;;;;;;;;8.67;8.67;;;;;;;;5063645;28;61959;-80
2022/08/25 04:45:55;;;;;;;;;12.00;9.67;;;;;;;;5062457;28;61854;-80
2022/08/25 04:48:21;;;;;;;;;8.00;8.00;;;;;;;;5061832;28;61816;-80
2022/08/25 04:50:46;;;;;;;;;6.25;6.25;;;;;;;;5062920;28;61980;-80
2022/08/25 04:53:12;;;;;;;;;9.50;9.50;;;;;;;;5063164;28;61968;-80
2022/08/25 04:55:45;;;;;;;;;8.75;8.00;;;;;;;;5061732;28;64740;-80
2022/08/25 04:58:11;;;;;;;;;7.00;7.00;;;;;;;;5063072;28;62043;-81
2022/08/25 05:00:37;;;;;;;;;9.75;7.00;;;;;;;;5062684;28;61725;-80
2022/08/25 05:03:03;;;;;;;;;10.00;9.50;;;;;;;;5061252;28;62536;-80
2022/08/25 05:05:29;;;;;;;;;9.00;9.00;;;;;;;;5062202;28;62849;-80
2022/08/25 05:07:54;;;;;;;;;11.50;9.50;;;;;;;;5062777;28;61677;-80
2022/08/25 05:10:19;;;;;;;;;12.00;9.00;;;;;;;;5062821;28;62280;-80
2022/08/25 05:12:45;;;;;;;;;13.50;12.50;;;;;;;;5061774;28;61951;-80
2022/08/25 05:17:54;;;;;;;;;12.50;9.00;;;;;;;;5061882;28;61750;-80
2022/08/25 05:20:19;;;;;;;;;11.25;7.00;;;;;;;;5061857;28;61776;-79
2022/08/25 05:22:45;;;;;;;;;15.25;9.00;;;;;;;;5058832;28;62023;-80
2022/08/25 05:25:10;;;;;;;;;10.50;9.50;;;;;;;;5059198;28;63670;-81
2022/08/25 05:27:36;;;;;;;;;11.25;9.25;;;;;;;;5059531;28;61979;-84
2022/08/25 05:30:01;;;;;;;;;11.25;10.25;;;;;;;;5059333;28;62403;-84
2022/08/25 05:32:26;;;;;;;;;10.33;8.33;;;;;;;;5061443;28;61949;-86
2022/08/25 05:34:51;;;;;;;;;12.00;10.00;;;;;;;;5060965;28;62909;-84
2022/08/25 05:37:17;;;;;;;;;12.00;7.75;;;;;;;;5060301;28;61984;-83
2022/08/25 05:39:42;;;;;;;;;8.50;8.50;;;;;;;;5060229;28;62228;-84
2022/08/25 05:42:07;;;;;;;;;17.50;9.00;;;;;;;;5060304;28;61820;-84
2022/08/25 05:44:33;;;;;;;;;10.00;10.00;;;;;;;;5059818;28;63853;-86
2022/08/25 05:46:58;;;;;;;;;9.25;8.25;;;;;;;;5059959;28;62050;-87
2022/08/25 05:49:23;;;;;;;;;11.75;8.25;;;;;;;;5060185;28;61799;-86
2022/08/25 05:51:48;;;;;;;;;10.00;9.50;;;;;;;;5060394;28;62318;-86
2022/08/25 05:54:14;;;;;;;;;14.50;9.50;;;;;;;;5059034;28;64719;-87
2022/08/25 05:56:40;;;;;;;;;11.50;9.50;;;;;;;;5060063;28;62442;-86
2022/08/25 05:59:05;;;;;;;;;12.25;8.00;;;;;;;;5060226;28;62152;-85
2022/08/25 06:04:15;;;;;;;;;12.25;11.25;;;;;;;;5060525;28;62016;-85
2022/08/25 06:06:40;;;;;;;;;17.75;9.25;;;;;;;;5059555;28;62022;-85
2022/08/25 06:09:07;;;;;;;;;14.25;9.00;;;;;;;;5060237;28;62216;-86
2022/08/25 06:11:32;;;;;;;;;12.00;10.50;;;;;;;;5059314;28;61912;-85
2022/08/25 06:13:58;;;;;;;;;12.25;8.50;;;;;;;;5057863;28;61874;-85
2022/08/25 06:16:23;;;;;;;;;10.00;9.50;;;;;;;;5058068;28;61864;-85
2022/08/25 06:18:49;;;;;;;;;9.00;9.00;;;;;;;;5059065;28;62607;-85
2022/08/25 06:21:15;;;;;;;;;13.75;11.00;;;;;;;;5058714;28;61955;-84
2022/08/25 06:23:41;;;;;;;;;12.75;12.00;;;;;;;;5061722;28;62931;-85
2022/08/25 06:26:08;;;;;;;;;11.50;9.50;;;;;;;;5062104;28;62598;-84
2022/08/25 06:28:33;;;;;;;;;16.33;10.33;;;;;;;;5062401;28;61801;-85
2022/08/25 06:30:59;;;;;;;;;9.75;9.75;;;;;;;;5062198;28;62031;-85
2022/08/25 06:33:25;;;;;;;;;10.00;10.00;;;;;;;;5061814;28;64058;-86
2022/08/25 06:35:52;;;;;;;;;17.67;11.00;;;;;;;;5062138;28;62075;-85
2022/08/25 06:38:18;;;;;;;;;14.75;12.00;;;;;;;;5060519;28;62295;-86
2022/08/25 06:40:45;;;;;;;;;10.75;10.75;;;;;;;;5063780;28;61865;-81
2022/08/25 06:43:11;;;;;;;;;10.75;8.75;;;;;;;;5061441;28;63770;-84
2022/08/25 06:45:36;;;;;;;;;9.50;9.25;;;;;;;;5063006;28;62065;-84
2022/08/25 06:48:01;;;;;;;;;14.25;10.00;;;;;;;;5062582;28;61888;-85
2022/08/25 06:50:26;;;;;;;;;10.50;8.00;;;;;;;;5061152;28;62208;-85
2022/08/25 06:52:52;;;;;;;;;10.25;8.50;;;;;;;;5060065;28;63948;-84
2022/08/25 06:55:17;;;;;;;;;14.50;10.50;;;;;;;;5060935;28;62057;-83
2022/08/25 06:57:43;;;;;;;;;14.00;11.50;;;;;;;;5061427;28;61796;-85
2022/08/25 07:00:09;;;;;;;;;11.33;9.00;;;;;;;;5062319;28;61734;-84
2022/08/25 07:02:37;;;;;;;;;11.00;9.75;;;;;;;;5062613;28;62073;-85
2022/08/25 07:05:03;;;;;;;;;14.00;10.33;;;;;;;;5063095;28;61883;-85
2022/08/25 07:07:28;;;;;;;;;9.00;9.00;;;;;;;;5061158;28;61730;-84
2022/08/25 07:09:53;;;;;;;;;9.00;9.00;;;;;;;;5063329;28;61848;-85
2022/08/25 07:12:19;;;;;;;;;10.00;9.67;;;;;;;;5062407;28;61888;-84
2022/08/25 07:14:44;;;;;;;;;13.33;8.67;;;;;;;;5063014;28;61697;-84
2022/08/25 07:17:10;;;;;;;;;11.67;9.67;;;;;;;;5062960;28;61787;-84
2022/08/25 07:19:35;;;;;;;;;11.33;11.33;;;;;;;;5062479;28;62066;-86
2022/08/25 07:22:01;;;;;;;;;11.00;9.00;;;;;;;;5061028;28;63533;-81
2022/08/25 07:24:26;;;;;;;;;10.00;10.00;;;;;;;;5062152;28;61939;-86
2022/08/25 07:26:51;;;;;;;;;10.67;9.67;;;;;;;;5061920;28;61995;-85
2022/08/25 07:29:22;;;;;;;;;10.33;10.33;;;;;;;;5062965;28;61935;-84
2022/08/25 07:31:47;;;;;;;;;12.33;11.67;;;;;;;;5061305;28;63725;-85
2022/08/25 07:36:57;;;;;;;;;14.67;11.67;;;;;;;;5062268;28;61761;-81
2022/08/25 07:39:23;;;;;;;;;14.00;11.67;;;;;;;;5061018;28;61830;-84
2022/08/25 07:41:48;;;;;;;;;11.67;11.00;;;;;;;;5062241;28;61773;-82
2022/08/25 07:44:14;;;;;;;;;14.00;11.00;;;;;;;;5062240;28;61949;-82
2022/08/25 07:46:39;;;;;;;;;9.00;9.00;;;;;;;;5062103;28;62105;-82
2022/08/25 07:49:04;;;;;;;;;11.00;9.33;;;;;;;;5061892;28;61724;-81
2022/08/25 07:51:30;;;;;;;;;13.00;9.67;;;;;;;;5060275;28;63771;-80
2022/08/25 07:53:55;;;;;;;;;17.00;12.33;;;;;;;;5054166;28;62027;-80
2022/08/25 07:56:21;;;;;;;;;14.00;10.00;;;;;;;;5059563;28;61790;-80
2022/08/25 07:58:46;;;;;;;;;15.00;10.67;;;;;;;;5060043;28;61885;-86
2022/08/25 08:01:13;;;;;;;;;9.33;9.00;;;;;;;;5059040;28;63618;-81
2022/08/25 08:03:38;;;;;;;;;13.33;11.00;;;;;;;;5058271;28;61914;-81
2022/08/25 08:06:08;;;;;;;;;12.00;10.33;;;;;;;;5058445;28;61952;-81
2022/08/25 08:08:35;;;;;;;;;9.00;7.67;;;;;;;;5059139;28;61999;-81
2022/08/25 08:11:00;;;;;;;;;12.67;9.67;;;;;;;;5057841;28;64742;-82
2022/08/25 08:13:29;;;;;;;;;10.67;9.00;;;;;;;;5058929;28;61947;-82
2022/08/25 08:15:54;;;;;;;;;11.67;9.67;;;;;;;;5059726;28;61944;-81
2022/08/25 08:18:20;;;;;;;;;10.33;9.67;;;;;;;;5061205;28;61852;-82
2022/08/25 08:20:46;;;;;;;;;11.33;9.67;;;;;;;;5059716;28;61899;-85
2022/08/25 08:23:12;;;;;;;;;10.67;10.67;;;;;;;;5058885;28;61734;-83
2022/08/25 08:25:37;;;;;;;;;11.00;11.00;;;;;;;;5060125;28;61940;-82
2022/08/25 08:28:02;;;;;;;;;12.67;10.00;;;;;;;;5059023;28;62029;-85
2022/08/25 08:30:28;;;;;;;;;11.67;10.67;;;;;;;;5057904;28;62919;-84
2022/08/25 08:32:54;;;;;;;;;10.33;10.33;;;;;;;;5056863;27;61930;-82
2022/08/25 08:35:19;;;;;;;;;15.33;13.00;;;;;;;;5017898;28;61755;-81
2022/08/25 08:37:45;;;;;;;;;10.00;9.00;;;;;;;;5018161;28;61779;-82
2022/08/25 08:40:13;;;;;;;;;12.33;11.00;;;;;;;;5020431;28;62902;-81
2022/08/25 08:42:45;;;;;;;;;10.67;10.00;;;;;;;;5020743;28;62119;-81
2022/08/25 08:45:13;;;;;;;;;11.00;9.67;;;;;;;;5018903;28;61812;-80
2022/08/25 08:47:41;;;;;;;;;14.00;10.00;;;;;;;;5018461;28;62087;-81
2022/08/25 08:50:25;;;;;;;;;17.67;10.67;;;;;;;;5017555;28;64121;-84
2022/08/25 08:53:00;;;;;;;;;7.00;7.00;;;;;;;;5017229;28;62939;-81
2022/08/25 08:55:34;;;;;;;;;9.33;9.00;;;;;;;;5050988;28;62023;-83
2022/08/25 08:58:01;;;;;;;;;8.00;8.00;;;;;;;;5016947;28;62065;-83
2022/08/25 09:00:27;;;;;;;;;8.00;8.00;;;;;;;;5017146;28;64743;-84
2022/08/25 09:02:59;;;;;;;;;5.00;5.00;;;;;;;;5018947;28;62218;-82
2022/08/25 09:05:26;;;;;;;;;9.67;9.67;;;;;;;;5019306;28;62448;-83
2022/08/25 09:07:58;;;;;;;;;8.33;8.33;;;;;;;;5019308;28;61789;-82
2022/08/25 09:10:25;;;;;;;;;10.33;8.00;;;;;;;;5018028;28;61811;-81
2022/08/25 09:13:15;;;;;;;;;10.00;7.67;;;;;;;;5018790;28;61835;-79
2022/08/25 09:18:40;;;;;;;;;11.67;10.33;;;;;;;;5019832;28;61825;-75
2022/08/25 09:21:13;;;;;;;;;14.00;9.67;;;;;;;;5019380;28;62687;-73
2022/08/25 09:23:47;;;;;;;;;7.67;6.33;;;;;;;;5019129;28;61865;-73
2022/08/25 09:26:21;;;;;;;;;10.00;8.00;;;;;;;;5019330;28;61937;-73
2022/08/25 09:28:53;;;;;;;;;8.67;7.00;;;;;;;;5018224;28;62272;-74
2022/08/25 09:31:23;;;;;;;;;7.33;6.67;;;;;;;;5018534;28;61866;-74
2022/08/25 09:33:52;;;;;;;;;7.33;7.33;;;;;;;;5017819;28;62174;-73
2022/08/25 09:36:17;;;;;;;;;7.33;5.33;;;;;;;;5019430;28;61832;-73
2022/08/25 09:38:43;;;;;;;;;6.67;6.67;;;;;;;;5017797;28;62306;-73
2022/08/25 09:41:10;;;;;;;;;7.00;6.00;;;;;;;;5019065;28;62283;-74
2022/08/25 09:43:43;;;;;;;;;8.00;7.00;;;;;;;;5018268;28;62034;-74
2022/08/25 09:46:16;;;;;;;;;8.00;7.00;;;;;;;;5016937;28;62153;-75
2022/08/25 09:48:49;;;;;;;;;7.00;7.00;;;;;;;;5018965;28;62035;-74
2022/08/25 09:51:25;;;;;;;;;5.00;5.00;;;;;;;;5017995;28;64084;-75
2022/08/25 09:53:59;;;;;;;;;7.67;6.67;;;;;;;;5016245;28;61894;-76
2022/08/25 09:56:27;;;;;;;;;4.33;4.33;;;;;;;;5019120;28;61903;-79
2022/08/25 09:58:53;;;;;;;;;7.00;6.00;;;;;;;;5021851;28;61856;-77
2022/08/25 10:01:20;;;;;;;;;7.67;6.33;;;;;;;;5020634;28;63768;-79
2022/08/25 10:03:56;;;;;;;;;8.00;7.00;;;;;;;;5022535;28;61996;-79
2022/08/25 10:06:22;;;;;;;;;6.33;6.00;;;;;;;;5021168;28;61748;-77
2022/08/25 10:08:47;;;;;;;;;5.00;5.00;;;;;;;;5021204;28;61941;-78
2022/08/25 10:11:27;;;;;;;;;5.67;5.67;;;;;;;;5017236;28;64931;-79
2022/08/25 10:14:02;;;;;;;;;6.33;6.33;;;;;;;;5019883;28;61927;-78
2022/08/25 10:16:32;;;;;;;;;5.00;5.00;;;;;;;;5019191;28;62133;-77
2022/08/25 10:19:04;;;;;;;;;4.00;4.00;;;;;;;;5021444;28;62171;-79
2022/08/25 10:21:29;;;;;;;;;7.00;4.67;;;;;;;;5021234;28;64683;-79
2022/08/25 10:23:55;;;;;;;;;5.00;5.00;;;;;;;;5019317;28;62240;-78
2022/08/25 10:26:37;;;;;;;;;8.00;7.00;;;;;;;;5020680;28;62158;-77
2022/08/25 10:29:15;;;;;;;;;5.33;5.33;;;;;;;;5020973;28;62151;-76
2022/08/25 10:31:43;;;;;;;;;6.00;5.33;;;;;;;;5021376;28;62167;-78
2022/08/25 10:34:16;;;;;;;;;6.00;5.00;;;;;;;;5022644;28;62112;-78
2022/08/25 10:36:51;;;;;;;;;6.33;6.33;;;;;;;;5022451;28;61924;-77
2022/08/25 10:39:26;;;;;;;;;8.00;6.00;;;;;;;;5021278;28;61889;-83
2022/08/25 10:42:02;;;;;;;;;7.00;6.00;;;;;;;;5021226;28;63739;-84
2022/08/25 10:47:30;;;;;;;;;8.33;8.33;;;;;;;;5023526;28;62559;-82
2022/08/25 10:50:02;;;;;;;;;7.00;7.00;;;;;;;;5022629;28;61983;-83
2022/08/25 10:52:37;;;;;;;;;5.00;5.00;;;;;;;;5023014;28;62813;-83
2022/08/25 10:55:14;;;;;;;;;10.00;6.00;;;;;;;;5022184;28;61868;-83
2022/08/25 10:57:59;;;;;;;;;7.67;6.00;;;;;;;;5023916;28;61868;-83
2022/08/25 11:00:30;;;;;;;;;7.67;6.33;;;;;;;;5023999;28;62503;-80
2022/08/25 11:03:07;;;;;;;;;6.00;5.67;;;;;;;;5021662;28;62863;-82
2022/08/25 11:05:38;;;;;;;;;6.33;6.33;;;;;;;;5023616;28;62088;-83
2022/08/25 11:08:22;;;;;;;;;8.00;7.33;;;;;;;;5022036;28;62534;-83
2022/08/25 11:10:55;;;;;;;;;6.33;6.00;;;;;;;;5023926;28;61855;-81
2022/08/25 11:13:27;;;;;;;;;7.33;7.00;;;;;;;;5021163;28;64001;-74
2022/08/25 11:15:55;;;;;;;;;7.33;7.33;;;;;;;;5023276;28;61687;-75
2022/08/25 11:18:21;;;;;;;;;8.33;6.33;;;;;;;;5021433;28;61749;-74
2022/08/25 11:20:59;;;;;;;;;5.33;5.33;;;;;;;;5022832;28;61897;-74
2022/08/25 11:23:36;;;;;;;;;7.00;7.00;;;;;;;;5021470;28;62896;-74
2022/08/25 11:26:06;;;;;;;;;5.00;5.00;;;;;;;;5023416;28;62221;-75
2022/08/25 11:28:37;;;;;;;;;6.00;6.00;;;;;;;;5023181;28;61845;-73
2022/08/25 11:31:03;;;;;;;;;6.67;6.67;;;;;;;;5023304;28;61770;-72
2022/08/25 11:33:29;;;;;;;;;6.00;6.00;;;;;;;;5022204;28;62053;-73
2022/08/25 11:36:17;;;;;;;;;5.33;5.00;;;;;;;;5022666;28;62047;-72
2022/08/25 11:39:01;;;;;;;;;6.00;5.00;;;;;;;;5020625;28;62144;-74
2022/08/25 11:41:30;;;;;;;;;6.33;6.33;;;;;;;;5019746;28;61880;-74
2022/08/25 11:44:24;;;;;;;;;7.67;6.00;;;;;;;;5020474;28;61818;-74
2022/08/25 11:46:59;;;;;;;;;5.00;5.00;;;;;;;;5029692;28;61948;-74
2022/08/25 11:49:43;;;;;;;;;6.33;6.00;;;;;;;;5018683;28;62105;-74
2022/08/25 11:52:28;;;;;;;;;8.00;7.00;;;;;;;;5021397;28;62054;-75
2022/08/25 11:54:53;;;;;;;;;8.00;6.00;;;;;;;;5020040;28;63619;-75
2022/08/25 11:57:21;;;;;;;;;5.00;5.00;;;;;;;;5020789;28;62013;-74
2022/08/25 11:59:56;;;;;;;;;5.33;5.33;;;;;;;;5020193;28;62031;-74
2022/08/25 12:02:44;;;;;;;;;7.00;7.00;;;;;;;;5019328;28;62053;-75
2022/08/25 12:05:16;;;;;;;;;5.00;5.00;;;;;;;;5030057;28;64580;-75
2022/08/25 12:07:47;;;;;;;;;7.67;5.33;;;;;;;;5020544;28;61999;-75
2022/08/25 12:10:19;;;;;;;;;5.33;5.33;;;;;;;;5019281;28;62111;-74
2022/08/25 12:12:44;;;;;;;;;8.00;6.00;;;;;;;;5019279;28;62176;-73
2022/08/25 12:15:13;;;;;;;;;7.00;7.00;;;;;;;;5020471;28;61736;-74
2022/08/25 12:17:38;;;;;;;;;5.67;5.67;;;;;;;;5021337;28;61832;-74
2022/08/25 12:20:04;;;;;;;;;5.00;5.00;;;;;;;;5021128;28;61966;-75
2022/08/25 12:22:29;;;;;;;;;5.67;5.67;;;;;;;;5021707;28;61799;-75
2022/08/25 12:24:58;;;;;;;;;5.00;5.00;;;;;;;;5017835;28;63666;-75
2022/08/25 12:27:27;;;;;;;;;4.67;4.67;;;;;;;;5020837;28;61777;-75
2022/08/25 12:29:52;;;;;;;;;6.00;4.00;;;;;;;;5022657;28;61995;-75
2022/08/25 12:32:20;;;;;;;;;4.33;4.33;;;;;;;;5021081;28;61961;-74
2022/08/25 12:34:45;;;;;;;;;5.00;5.00;;;;;;;;5021486;28;61878;-75
2022/08/25 12:37:13;;;;;;;;;4.33;4.33;;;;;;;;5020908;28;62222;-75
2022/08/25 12:39:43;;;;;;;;;9.00;6.00;;;;;;;;5020469;28;61817;-75
2022/08/25 12:42:21;;;;;;;;;4.00;4.00;;;;;;;;5022667;28;61938;-75
2022/08/25 12:45:06;;;;;;;;;4.33;4.33;;;;;;;;5020117;28;64921;-75
2022/08/25 12:47:31;;;;;;;;;5.00;4.00;;;;;;;;5020111;28;62217;-75
2022/08/25 12:50:15;;;;;;;;;3.33;3.33;;;;;;;;5022046;28;61917;-75
2022/08/25 12:52:41;;;;;;;;;5.33;4.33;;;;;;;;5021926;28;62070;-75
2022/08/25 12:55:10;;;;;;;;;3.50;3.50;;;;;;;;5021286;28;61743;-75
2022/08/25 12:57:41;;;;;;;;;5.67;5.00;;;;;;;;5022075;28;62021;-75
2022/08/25 13:00:16;;;;;;;;;6.00;6.00;;;;;;;;5020712;28;61757;-75
2022/08/25 13:02:51;;;;;;;;;6.67;6.67;;;;;;;;5021728;28;61981;-75
2022/08/25 13:05:25;;;;;;;;;6.33;5.67;;;;;;;;5021407;28;62548;-75
2022/08/25 13:07:59;;;;;;;;;3.67;3.67;;;;;;;;5020290;28;61920;-75
2022/08/25 13:10:37;;;;;;;;;4.67;4.00;;;;;;;;5020755;28;61827;-75
2022/08/25 13:13:03;;;;;;;;;6.33;5.33;;;;;;;;5022056;28;62009;-75
2022/08/25 13:15:31;;;;;;;;;5.00;5.00;;;;;;;;5021238;28;63185;-75
2022/08/25 13:18:11;;;;;;;;;5.00;5.00;;;;;;;;5020141;28;61849;-75
2022/08/25 13:20:36;;;;;;;;;4.33;4.33;;;;;;;;5021768;28;61691;-75
2022/08/25 13:23:02;;;;;;;;;5.67;5.67;;;;;;;;5019678;28;61883;-76
2022/08/25 13:25:28;;;;;;;;;4.67;4.00;;;;;;;;5020959;28;62014;-75
2022/08/25 13:27:55;;;;;;;;;4.33;4.33;;;;;;;;5021406;28;61881;-75
2022/08/25 13:30:25;;;;;;;;;6.00;5.33;;;;;;;;5020626;28;62159;-75
2022/08/25 13:32:50;;;;;;;;;4.00;4.00;;;;;;;;5022768;28;61891;-75
2022/08/25 13:35:18;;;;;;;;;3.67;3.67;;;;;;;;5023359;28;63638;-75
2022/08/25 13:37:43;;;;;;;;;4.67;4.00;;;;;;;;5023443;28;62069;-75
2022/08/25 13:40:29;;;;;;;;;4.00;4.00;;;;;;;;5025083;28;61882;-75
2022/08/25 13:42:57;;;;;;;;;5.67;4.00;;;;;;;;5025133;28;61699;-75
2022/08/25 13:45:24;;;;;;;;;7.00;5.67;;;;;;;;5022777;28;64027;-75
2022/08/25 13:47:50;;;;;;;;;4.33;4.00;;;;;;;;5024605;28;62305;-75
2022/08/25 13:50:25;;;;;;;;;4.00;4.00;;;;;;;;5023543;28;61952;-75
2022/08/25 13:52:53;;;;;;;;;4.67;3.67;;;;;;;;5024683;28;61844;-75
2022/08/25 13:55:22;;;;;;;;;4.67;4.67;;;;;;;;5024030;28;62137;-75
2022/08/25 13:57:47;;;;;;;;;5.00;5.00;;;;;;;;5024756;28;62092;-75
2022/08/25 14:00:23;;;;;;;;;4.00;4.00;;;;;;;;5024582;28;62022;-75
2022/08/25 14:02:50;;;;;;;;;3.00;3.00;;;;;;;;5024953;28;62143;-75
2022/08/25 14:05:28;;;;;;;;;4.67;4.67;;;;;;;;5024177;28;61875;-75
2022/08/25 14:07:55;;;;;;;;;3.67;3.67;;;;;;;;5022784;28;61722;-75
2022/08/25 14:10:36;;;;;;;;;3.00;3.00;;;;;;;;5023570;28;61743;-75
2022/08/25 14:13:12;;;;;;;;;3.67;2.00;;;;;;;;5023110;28;62007;-75
2022/08/25 14:15:38;;;;;;;;;4.00;3.00;;;;;;;;5022522;28;64027;-75
2022/08/25 14:18:03;;;;;;;;;3.00;3.00;;;;;;;;5023942;28;62051;-75
2022/08/25 14:20:30;;;;;;;;;2.67;2.67;;;;;;;;5023366;28;62209;-75
2022/08/25 14:22:57;;;;;;;;;2.00;2.00;;;;;;;;5022396;28;62003;-76
2022/08/25 14:25:23;;;;;;;;;4.33;3.00;;;;;;;;5022353;28;63625;-75
2022/08/25 14:27:59;;;;;;;;;3.00;3.00;;;;;;;;5023096;28;61932;-75
2022/08/25 14:30:25;;;;;;;;;2.00;2.00;;;;;;;;5024401;28;61737;-74
2022/08/25 14:32:50;;;;;;;;;2.00;2.00;;;;;;;;5024554;28;62252;-75
2022/08/25 14:35:17;;;;;;;;;1.00;1.00;;;;;;;;5023550;28;63138;-76
2022/08/25 14:37:43;;;;;;;;;2.00;2.00;;;;;;;;5024239;28;61982;-75
2022/08/25 14:40:12;;;;;;;;;3.00;3.00;;;;;;;;5023768;28;62504;-76
2022/08/25 14:42:37;;;;;;;;;2.33;2.33;;;;;;;;5023581;28;62030;-75
2022/08/25 14:45:03;;;;;;;;;3.00;3.00;;;;;;;;5022702;28;61930;-74
2022/08/25 14:47:30;;;;;;;;;2.00;2.00;;;;;;;;5024087;28;61981;-76
2022/08/25 14:49:55;;;;;;;;;3.00;2.00;;;;;;;;5023678;28;62032;-75
2022/08/25 14:52:25;;;;;;;;;1.33;1.33;;;;;;;;5022807;28;61858;-75
2022/08/25 14:54:50;;;;;;;;;3.33;3.00;;;;;;;;5021585;28;64382;-75
2022/08/25 14:57:16;;;;;;;;;4.33;3.33;;;;;;;;5022134;28;61729;-75